sensor_id;sensor_type;location;lat;lon;timestamp;P1;durP1;ratioP1;P2;durP2;ratioP2
66487;SDS011;53304;54.550;18.526;2024-02-21T00:00:22;5.57;;;2.42;;
66487;SDS011;53304;54.550;18.526;2024-02-21T00:02:50;6.45;;;2.60;;
66487;SDS011;53304;54.550;18.526;2024-02-21T00:05:15;6.57;;;2.90;;
66487;SDS011;53304;54.550;18.526;2024-02-21T00:07:43;6.40;;;2.47;;
66487;SDS011;53304;54.550;18.526;2024-02-21T00:10:12;6.55;;;2.45;;
66487;SDS011;53304;54.550;18.526;2024-02-21T00:12:37;7.07;;;2.80;;
66487;SDS011;53304;54.550;18.526;2024-02-21T00:15:05;8.35;;;3.00;;
66487;SDS011;53304;54.550;18.526;2024-02-21T00:17:31;7.10;;;2.60;;
66487;SDS011;53304;54.550;18.526;2024-02-21T00:19:57;6.35;;;2.53;;
66487;SDS011;53304;54.550;18.526;2024-02-21T00:22:22;8.50;;;2.80;;
66487;SDS011;53304;54.550;18.526;2024-02-21T00:24:53;5.28;;;2.45;;
66487;SDS011;53304;54.550;18.526;2024-02-21T00:27:21;7.13;;;2.90;;
66487;SDS011;53304;54.550;18.526;2024-02-21T00:29:49;6.50;;;2.95;;
66487;SDS011;53304;54.550;18.526;2024-02-21T00:32:15;5.85;;;2.17;;
66487;SDS011;53304;54.550;18.526;2024-02-21T00:34:40;5.78;;;2.75;;
66487;SDS011;53304;54.550;18.526;2024-02-21T00:37:06;7.18;;;2.88;;
66487;SDS011;53304;54.550;18.526;2024-02-21T00:39:33;6.53;;;2.42;;
66487;SDS011;53304;54.550;18.526;2024-02-21T00:41:59;6.78;;;2.47;;
66487;SDS011;53304;54.550;18.526;2024-02-21T00:44:24;7.68;;;2.58;;
66487;SDS011;53304;54.550;18.526;2024-02-21T00:46:50;7.70;;;2.60;;
66487;SDS011;53304;54.550;18.526;2024-02-21T00:49:15;6.05;;;2.28;;
66487;SDS011;53304;54.550;18.526;2024-02-21T00:51:41;6.03;;;2.75;;
66487;SDS011;53304;54.550;18.526;2024-02-21T00:54:06;8.43;;;2.70;;
66487;SDS011;53304;54.550;18.526;2024-02-21T00:56:32;5.78;;;2.42;;
66487;SDS011;53304;54.550;18.526;2024-02-21T00:58:57;7.45;;;2.50;;
66487;SDS011;53304;54.550;18.526;2024-02-21T01:01:23;6.22;;;2.20;;
66487;SDS011;53304;54.550;18.526;2024-02-21T01:03:50;6.68;;;2.30;;
66487;SDS011;53304;54.550;18.526;2024-02-21T01:06:18;6.50;;;2.20;;
66487;SDS011;53304;54.550;18.526;2024-02-21T01:08:45;7.07;;;2.38;;
66487;SDS011;53304;54.550;18.526;2024-02-21T01:11:12;6.53;;;2.50;;
66487;SDS011;53304;54.550;18.526;2024-02-21T01:13:37;9.57;;;2.40;;
66487;SDS011;53304;54.550;18.526;2024-02-21T01:16:03;6.40;;;2.47;;
66487;SDS011;53304;54.550;18.526;2024-02-21T01:18:28;6.38;;;2.28;;
66487;SDS011;53304;54.550;18.526;2024-02-21T01:20:56;6.15;;;2.30;;
66487;SDS011;53304;54.550;18.526;2024-02-21T01:23:24;5.53;;;1.95;;
66487;SDS011;53304;54.550;18.526;2024-02-21T01:25:49;7.15;;;2.40;;
66487;SDS011;53304;54.550;18.526;2024-02-21T01:28:15;6.10;;;2.40;;
66487;SDS011;53304;54.550;18.526;2024-02-21T01:30:45;6.03;;;2.20;;
66487;SDS011;53304;54.550;18.526;2024-02-21T01:33:12;6.00;;;2.25;;
66487;SDS011;53304;54.550;18.526;2024-02-21T01:35:38;4.72;;;2.08;;
66487;SDS011;53304;54.550;18.526;2024-02-21T01:38:06;6.05;;;2.17;;
66487;SDS011;53304;54.550;18.526;2024-02-21T01:40:31;5.95;;;2.40;;
66487;SDS011;53304;54.550;18.526;2024-02-21T01:42:56;5.22;;;2.20;;
66487;SDS011;53304;54.550;18.526;2024-02-21T01:45:24;6.60;;;2.40;;
66487;SDS011;53304;54.550;18.526;2024-02-21T01:47:50;5.65;;;2.15;;
66487;SDS011;53304;54.550;18.526;2024-02-21T01:50:18;6.88;;;2.20;;
66487;SDS011;53304;54.550;18.526;2024-02-21T01:52:43;6.07;;;2.20;;
66487;SDS011;53304;54.550;18.526;2024-02-21T01:55:14;6.95;;;2.38;;
66487;SDS011;53304;54.550;18.526;2024-02-21T01:57:40;6.57;;;2.13;;
66487;SDS011;53304;54.550;18.526;2024-02-21T02:00:10;6.10;;;2.47;;
66487;SDS011;53304;54.550;18.526;2024-02-21T02:02:38;7.80;;;2.40;;
66487;SDS011;53304;54.550;18.526;2024-02-21T02:05:04;6.90;;;2.20;;
66487;SDS011;53304;54.550;18.526;2024-02-21T02:07:31;7.20;;;2.40;;
66487;SDS011;53304;54.550;18.526;2024-02-21T02:09:56;7.78;;;2.30;;
66487;SDS011;53304;54.550;18.526;2024-02-21T02:12:22;5.18;;;2.10;;
66487;SDS011;53304;54.550;18.526;2024-02-21T02:14:57;4.85;;;2.33;;
66487;SDS011;53304;54.550;18.526;2024-02-21T02:17:25;6.65;;;2.47;;
66487;SDS011;53304;54.550;18.526;2024-02-21T02:19:51;6.25;;;2.33;;
66487;SDS011;53304;54.550;18.526;2024-02-21T02:22:20;6.55;;;2.55;;
66487;SDS011;53304;54.550;18.526;2024-02-21T02:24:50;7.85;;;2.53;;
66487;SDS011;53304;54.550;18.526;2024-02-21T02:27:15;4.82;;;2.10;;
66487;SDS011;53304;54.550;18.526;2024-02-21T02:29:40;5.10;;;2.13;;
66487;SDS011;53304;54.550;18.526;2024-02-21T02:32:06;7.07;;;2.15;;
66487;SDS011;53304;54.550;18.526;2024-02-21T02:34:31;6.88;;;2.25;;
66487;SDS011;53304;54.550;18.526;2024-02-21T02:36:59;6.82;;;2.38;;
66487;SDS011;53304;54.550;18.526;2024-02-21T02:39:24;6.10;;;2.28;;
66487;SDS011;53304;54.550;18.526;2024-02-21T02:41:50;5.72;;;1.95;;
66487;SDS011;53304;54.550;18.526;2024-02-21T02:44:15;7.45;;;2.20;;
66487;SDS011;53304;54.550;18.526;2024-02-21T02:46:43;5.70;;;2.33;;
66487;SDS011;53304;54.550;18.526;2024-02-21T02:49:10;6.85;;;2.00;;
66487;SDS011;53304;54.550;18.526;2024-02-21T02:51:36;8.30;;;2.33;;
66487;SDS011;53304;54.550;18.526;2024-02-21T02:54:04;5.78;;;2.10;;
66487;SDS011;53304;54.550;18.526;2024-02-21T02:56:29;6.20;;;2.35;;
66487;SDS011;53304;54.550;18.526;2024-02-21T02:58:55;5.35;;;1.90;;
66487;SDS011;53304;54.550;18.526;2024-02-21T03:01:20;5.63;;;2.35;;
66487;SDS011;53304;54.550;18.526;2024-02-21T03:03:46;7.18;;;2.13;;
66487;SDS011;53304;54.550;18.526;2024-02-21T03:06:14;5.50;;;2.00;;
66487;SDS011;53304;54.550;18.526;2024-02-21T03:08:45;5.00;;;2.00;;
66487;SDS011;53304;54.550;18.526;2024-02-21T03:11:10;6.88;;;2.10;;
66487;SDS011;53304;54.550;18.526;2024-02-21T03:13:36;8.15;;;2.38;;
66487;SDS011;53304;54.550;18.526;2024-02-21T03:16:04;5.47;;;2.20;;
66487;SDS011;53304;54.550;18.526;2024-02-21T03:18:32;4.85;;;1.92;;
66487;SDS011;53304;54.550;18.526;2024-02-21T03:21:00;6.75;;;2.25;;
66487;SDS011;53304;54.550;18.526;2024-02-21T03:23:30;5.18;;;1.60;;
66487;SDS011;53304;54.550;18.526;2024-02-21T03:25:55;6.55;;;2.17;;
66487;SDS011;53304;54.550;18.526;2024-02-21T03:28:23;5.38;;;1.80;;
66487;SDS011;53304;54.550;18.526;2024-02-21T03:30:48;6.57;;;1.80;;
66487;SDS011;53304;54.550;18.526;2024-02-21T03:33:13;6.07;;;1.80;;
66487;SDS011;53304;54.550;18.526;2024-02-21T03:35:39;6.50;;;2.28;;
66487;SDS011;53304;54.550;18.526;2024-02-21T03:38:07;4.20;;;1.92;;
66487;SDS011;53304;54.550;18.526;2024-02-21T03:40:35;4.63;;;1.80;;
66487;SDS011;53304;54.550;18.526;2024-02-21T03:43:00;3.97;;;1.60;;
66487;SDS011;53304;54.550;18.526;2024-02-21T03:45:30;6.25;;;1.95;;
66487;SDS011;53304;54.550;18.526;2024-02-21T03:47:56;5.80;;;1.80;;
66487;SDS011;53304;54.550;18.526;2024-02-21T03:50:21;5.18;;;1.90;;
66487;SDS011;53304;54.550;18.526;2024-02-21T03:52:53;6.28;;;1.80;;
66487;SDS011;53304;54.550;18.526;2024-02-21T03:55:18;5.53;;;2.10;;
66487;SDS011;53304;54.550;18.526;2024-02-21T03:57:44;4.28;;;1.65;;
66487;SDS011;53304;54.550;18.526;2024-02-21T04:00:14;5.13;;;1.70;;
66487;SDS011;53304;54.550;18.526;2024-02-21T04:02:40;6.70;;;2.22;;
66487;SDS011;53304;54.550;18.526;2024-02-21T04:05:07;6.45;;;2.13;;
66487;SDS011;53304;54.550;18.526;2024-02-21T04:07:36;5.53;;;1.77;;
66487;SDS011;53304;54.550;18.526;2024-02-21T04:10:02;6.05;;;1.75;;
66487;SDS011;53304;54.550;18.526;2024-02-21T04:12:28;5.30;;;2.00;;
66487;SDS011;53304;54.550;18.526;2024-02-21T04:14:53;4.18;;;1.63;;
66487;SDS011;53304;54.550;18.526;2024-02-21T04:17:21;4.53;;;1.77;;
66487;SDS011;53304;54.550;18.526;2024-02-21T04:19:47;4.90;;;2.03;;
66487;SDS011;53304;54.550;18.526;2024-02-21T04:22:12;4.10;;;1.55;;
66487;SDS011;53304;54.550;18.526;2024-02-21T04:24:40;3.45;;;1.63;;
66487;SDS011;53304;54.550;18.526;2024-02-21T04:27:05;4.28;;;1.45;;
66487;SDS011;53304;54.550;18.526;2024-02-21T04:29:33;4.85;;;1.55;;
66487;SDS011;53304;54.550;18.526;2024-02-21T04:32:01;4.65;;;1.83;;
66487;SDS011;53304;54.550;18.526;2024-02-21T04:34:27;5.00;;;2.05;;
66487;SDS011;53304;54.550;18.526;2024-02-21T04:36:55;4.97;;;1.70;;
66487;SDS011;53304;54.550;18.526;2024-02-21T04:39:20;3.45;;;1.50;;
66487;SDS011;53304;54.550;18.526;2024-02-21T04:41:46;5.95;;;1.73;;
66487;SDS011;53304;54.550;18.526;2024-02-21T04:44:11;4.88;;;1.85;;
66487;SDS011;53304;54.550;18.526;2024-02-21T04:46:36;5.68;;;1.80;;
66487;SDS011;53304;54.550;18.526;2024-02-21T04:49:02;4.60;;;1.50;;
66487;SDS011;53304;54.550;18.526;2024-02-21T04:51:30;5.32;;;1.90;;
66487;SDS011;53304;54.550;18.526;2024-02-21T04:53:55;3.65;;;1.67;;
66487;SDS011;53304;54.550;18.526;2024-02-21T04:56:20;5.75;;;1.70;;
66487;SDS011;53304;54.550;18.526;2024-02-21T04:58:48;4.65;;;1.70;;
66487;SDS011;53304;54.550;18.526;2024-02-21T05:01:14;3.85;;;1.55;;
66487;SDS011;53304;54.550;18.526;2024-02-21T05:03:39;6.30;;;1.67;;
66487;SDS011;53304;54.550;18.526;2024-02-21T05:06:04;5.13;;;1.73;;
66487;SDS011;53304;54.550;18.526;2024-02-21T05:08:30;3.70;;;1.50;;
66487;SDS011;53304;54.550;18.526;2024-02-21T05:10:55;4.40;;;1.63;;
66487;SDS011;53304;54.550;18.526;2024-02-21T05:13:26;4.63;;;1.67;;
66487;SDS011;53304;54.550;18.526;2024-02-21T05:15:53;4.78;;;1.52;;
66487;SDS011;53304;54.550;18.526;2024-02-21T05:18:19;4.30;;;1.73;;
66487;SDS011;53304;54.550;18.526;2024-02-21T05:20:47;4.35;;;1.63;;
66487;SDS011;53304;54.550;18.526;2024-02-21T05:23:17;4.93;;;1.52;;
66487;SDS011;53304;54.550;18.526;2024-02-21T05:25:44;4.43;;;1.90;;
66487;SDS011;53304;54.550;18.526;2024-02-21T05:28:10;4.78;;;1.60;;
66487;SDS011;53304;54.550;18.526;2024-02-21T05:30:38;3.88;;;1.50;;
66487;SDS011;53304;54.550;18.526;2024-02-21T05:33:07;3.55;;;1.55;;
66487;SDS011;53304;54.550;18.526;2024-02-21T05:35:35;3.97;;;1.80;;
66487;SDS011;53304;54.550;18.526;2024-02-21T05:38:01;3.85;;;1.60;;
66487;SDS011;53304;54.550;18.526;2024-02-21T05:40:31;3.42;;;1.50;;
66487;SDS011;53304;54.550;18.526;2024-02-21T05:42:57;4.28;;;1.65;;
66487;SDS011;53304;54.550;18.526;2024-02-21T05:45:22;4.10;;;1.55;;
66487;SDS011;53304;54.550;18.526;2024-02-21T05:47:48;4.00;;;1.58;;
66487;SDS011;53304;54.550;18.526;2024-02-21T05:50:15;4.35;;;1.75;;
66487;SDS011;53304;54.550;18.526;2024-02-21T05:52:45;5.28;;;1.60;;
66487;SDS011;53304;54.550;18.526;2024-02-21T05:55:12;3.65;;;1.40;;
66487;SDS011;53304;54.550;18.526;2024-02-21T05:57:42;4.82;;;1.65;;
66487;SDS011;53304;54.550;18.526;2024-02-21T06:00:12;5.22;;;1.83;;
66487;SDS011;53304;54.550;18.526;2024-02-21T06:02:42;4.05;;;1.70;;
66487;SDS011;53304;54.550;18.526;2024-02-21T06:05:08;4.18;;;1.67;;
66487;SDS011;53304;54.550;18.526;2024-02-21T06:07:34;4.55;;;1.83;;
66487;SDS011;53304;54.550;18.526;2024-02-21T06:10:00;3.13;;;1.42;;
66487;SDS011;53304;54.550;18.526;2024-02-21T06:12:30;3.10;;;1.40;;
66487;SDS011;53304;54.550;18.526;2024-02-21T06:14:55;4.35;;;1.70;;
66487;SDS011;53304;54.550;18.526;2024-02-21T06:17:26;4.85;;;1.83;;
66487;SDS011;53304;54.550;18.526;2024-02-21T06:19:51;5.05;;;1.45;;
66487;SDS011;53304;54.550;18.526;2024-02-21T06:22:19;3.75;;;1.85;;
66487;SDS011;53304;54.550;18.526;2024-02-21T06:24:46;3.17;;;1.48;;
66487;SDS011;53304;54.550;18.526;2024-02-21T06:27:12;3.03;;;1.40;;
66487;SDS011;53304;54.550;18.526;2024-02-21T06:29:39;2.97;;;1.50;;
66487;SDS011;53304;54.550;18.526;2024-02-21T06:32:05;2.83;;;1.42;;
66487;SDS011;53304;54.550;18.526;2024-02-21T06:34:31;3.03;;;1.50;;
66487;SDS011;53304;54.550;18.526;2024-02-21T06:36:56;4.28;;;1.48;;
66487;SDS011;53304;54.550;18.526;2024-02-21T06:39:22;2.92;;;1.40;;
66487;SDS011;53304;54.550;18.526;2024-02-21T06:41:48;4.07;;;1.63;;
66487;SDS011;53304;54.550;18.526;2024-02-21T06:44:15;4.10;;;1.42;;
66487;SDS011;53304;54.550;18.526;2024-02-21T06:46:41;3.75;;;1.45;;
66487;SDS011;53304;54.550;18.526;2024-02-21T06:49:06;4.40;;;1.80;;
66487;SDS011;53304;54.550;18.526;2024-02-21T06:51:32;3.10;;;1.45;;
66487;SDS011;53304;54.550;18.526;2024-02-21T06:54:02;3.65;;;1.40;;
66487;SDS011;53304;54.550;18.526;2024-02-21T06:56:28;5.80;;;1.60;;
66487;SDS011;53304;54.550;18.526;2024-02-21T06:58:57;4.13;;;1.60;;
66487;SDS011;53304;54.550;18.526;2024-02-21T07:01:25;5.07;;;1.70;;
66487;SDS011;53304;54.550;18.526;2024-02-21T07:03:50;3.60;;;1.30;;
66487;SDS011;53304;54.550;18.526;2024-02-21T07:06:16;4.07;;;1.70;;
66487;SDS011;53304;54.550;18.526;2024-02-21T07:08:41;4.43;;;1.70;;
66487;SDS011;53304;54.550;18.526;2024-02-21T07:11:07;2.58;;;1.30;;
66487;SDS011;53304;54.550;18.526;2024-02-21T07:13:33;3.75;;;1.60;;
66487;SDS011;53304;54.550;18.526;2024-02-21T07:16:01;5.03;;;1.70;;
66487;SDS011;53304;54.550;18.526;2024-02-21T07:18:26;3.28;;;1.50;;
66487;SDS011;53304;54.550;18.526;2024-02-21T07:20:52;5.55;;;2.03;;
66487;SDS011;53304;54.550;18.526;2024-02-21T07:23:18;5.10;;;1.92;;
66487;SDS011;53304;54.550;18.526;2024-02-21T07:25:46;3.45;;;1.83;;
66487;SDS011;53304;54.550;18.526;2024-02-21T07:28:11;2.92;;;1.48;;
66487;SDS011;53304;54.550;18.526;2024-02-21T07:30:38;3.92;;;1.50;;
66487;SDS011;53304;54.550;18.526;2024-02-21T07:33:04;3.35;;;1.42;;
66487;SDS011;53304;54.550;18.526;2024-02-21T07:35:29;4.90;;;1.80;;
66487;SDS011;53304;54.550;18.526;2024-02-21T07:37:55;5.40;;;1.80;;
66487;SDS011;53304;54.550;18.526;2024-02-21T07:40:22;12.35;;;2.22;;
66487;SDS011;53304;54.550;18.526;2024-02-21T07:42:50;5.13;;;2.15;;
66487;SDS011;53304;54.550;18.526;2024-02-21T07:45:20;6.43;;;1.83;;
66487;SDS011;53304;54.550;18.526;2024-02-21T07:47:51;7.90;;;2.40;;
66487;SDS011;53304;54.550;18.526;2024-02-21T07:50:16;6.25;;;2.00;;
66487;SDS011;53304;54.550;18.526;2024-02-21T07:52:42;6.90;;;2.08;;
66487;SDS011;53304;54.550;18.526;2024-02-21T07:55:10;5.15;;;2.03;;
66487;SDS011;53304;54.550;18.526;2024-02-21T07:57:38;7.68;;;2.30;;
66487;SDS011;53304;54.550;18.526;2024-02-21T08:00:06;6.78;;;2.38;;
66487;SDS011;53304;54.550;18.526;2024-02-21T08:02:34;8.00;;;2.55;;
66487;SDS011;53304;54.550;18.526;2024-02-21T08:05:00;5.53;;;2.10;;
66487;SDS011;53304;54.550;18.526;2024-02-21T08:07:25;5.82;;;2.22;;
66487;SDS011;53304;54.550;18.526;2024-02-21T08:09:54;4.35;;;2.13;;
66487;SDS011;53304;54.550;18.526;2024-02-21T08:12:21;10.88;;;2.42;;
66487;SDS011;53304;54.550;18.526;2024-02-21T08:14:47;6.47;;;2.50;;
66487;SDS011;53304;54.550;18.526;2024-02-21T08:17:12;8.45;;;3.15;;
66487;SDS011;53304;54.550;18.526;2024-02-21T08:19:37;10.43;;;2.60;;
66487;SDS011;53304;54.550;18.526;2024-02-21T08:22:03;11.75;;;2.80;;
66487;SDS011;53304;54.550;18.526;2024-02-21T08:24:31;6.90;;;2.63;;
66487;SDS011;53304;54.550;18.526;2024-02-21T08:26:56;6.60;;;2.42;;
66487;SDS011;53304;54.550;18.526;2024-02-21T08:29:22;6.03;;;2.10;;
66487;SDS011;53304;54.550;18.526;2024-02-21T08:31:47;7.30;;;2.40;;
66487;SDS011;53304;54.550;18.526;2024-02-21T08:34:15;7.78;;;2.15;;
66487;SDS011;53304;54.550;18.526;2024-02-21T08:36:45;5.18;;;2.20;;
66487;SDS011;53304;54.550;18.526;2024-02-21T08:39:11;4.68;;;2.42;;
66487;SDS011;53304;54.550;18.526;2024-02-21T08:41:40;8.85;;;2.20;;
66487;SDS011;53304;54.550;18.526;2024-02-21T08:44:05;5.47;;;2.33;;
66487;SDS011;53304;54.550;18.526;2024-02-21T08:46:32;4.63;;;2.15;;
66487;SDS011;53304;54.550;18.526;2024-02-21T08:48:57;5.28;;;2.42;;
66487;SDS011;53304;54.550;18.526;2024-02-21T08:51:26;4.22;;;2.10;;
66487;SDS011;53304;54.550;18.526;2024-02-21T08:53:51;5.65;;;2.40;;
66487;SDS011;53304;54.550;18.526;2024-02-21T08:56:18;4.90;;;2.40;;
66487;SDS011;53304;54.550;18.526;2024-02-21T08:58:44;5.47;;;2.00;;
66487;SDS011;53304;54.550;18.526;2024-02-21T09:01:12;5.00;;;2.20;;
66487;SDS011;53304;54.550;18.526;2024-02-21T09:03:40;3.95;;;2.30;;
66487;SDS011;53304;54.550;18.526;2024-02-21T09:06:05;5.22;;;2.38;;
66487;SDS011;53304;54.550;18.526;2024-02-21T09:08:31;6.25;;;2.22;;
66487;SDS011;53304;54.550;18.526;2024-02-21T09:10:57;5.45;;;2.30;;
66487;SDS011;53304;54.550;18.526;2024-02-21T09:13:27;4.57;;;2.40;;
66487;SDS011;53304;54.550;18.526;2024-02-21T09:15:53;5.68;;;2.28;;
66487;SDS011;53304;54.550;18.526;2024-02-21T09:18:19;6.82;;;2.42;;
66487;SDS011;53304;54.550;18.526;2024-02-21T09:20:46;5.00;;;2.22;;
66487;SDS011;53304;54.550;18.526;2024-02-21T09:23:12;5.63;;;2.42;;
66487;SDS011;53304;54.550;18.526;2024-02-21T09:25:38;4.47;;;2.30;;
66487;SDS011;53304;54.550;18.526;2024-02-21T09:28:05;4.78;;;2.20;;
66487;SDS011;53304;54.550;18.526;2024-02-21T09:30:31;5.88;;;2.47;;
66487;SDS011;53304;54.550;18.526;2024-02-21T09:32:56;4.30;;;1.92;;
66487;SDS011;53304;54.550;18.526;2024-02-21T09:35:25;7.28;;;2.72;;
66487;SDS011;53304;54.550;18.526;2024-02-21T09:37:52;4.75;;;2.20;;
66487;SDS011;53304;54.550;18.526;2024-02-21T09:40:18;4.03;;;1.88;;
66487;SDS011;53304;54.550;18.526;2024-02-21T09:42:43;6.28;;;2.25;;
66487;SDS011;53304;54.550;18.526;2024-02-21T09:50:59;4.65;;;2.20;;
66487;SDS011;53304;54.550;18.526;2024-02-21T09:53:28;6.07;;;2.30;;
66487;SDS011;53304;54.550;18.526;2024-02-21T09:55:55;4.07;;;2.20;;
66487;SDS011;53304;54.550;18.526;2024-02-21T09:58:21;5.28;;;2.10;;
66487;SDS011;53304;54.550;18.526;2024-02-21T10:00:52;4.10;;;2.10;;
66487;SDS011;53304;54.550;18.526;2024-02-21T10:03:20;4.70;;;2.35;;
66487;SDS011;53304;54.550;18.526;2024-02-21T10:05:50;5.43;;;2.17;;
66487;SDS011;53304;54.550;18.526;2024-02-21T10:08:18;4.35;;;2.42;;
66487;SDS011;53304;54.550;18.526;2024-02-21T10:10:47;3.85;;;2.20;;
66487;SDS011;53304;54.550;18.526;2024-02-21T10:13:23;4.88;;;2.55;;
66487;SDS011;53304;54.550;18.526;2024-02-21T10:15:59;4.10;;;2.10;;
66487;SDS011;53304;54.550;18.526;2024-02-21T10:18:31;4.22;;;2.30;;
66487;SDS011;53304;54.550;18.526;2024-02-21T10:21:07;5.88;;;2.58;;
66487;SDS011;53304;54.550;18.526;2024-02-21T10:23:45;6.85;;;2.45;;
66487;SDS011;53304;54.550;18.526;2024-02-21T10:26:14;5.18;;;2.40;;
66487;SDS011;53304;54.550;18.526;2024-02-21T10:28:43;4.85;;;2.20;;
66487;SDS011;53304;54.550;18.526;2024-02-21T10:31:20;4.43;;;2.10;;
66487;SDS011;53304;54.550;18.526;2024-02-21T10:33:53;5.07;;;2.20;;
66487;SDS011;53304;54.550;18.526;2024-02-21T10:36:22;4.78;;;2.10;;
66487;SDS011;53304;54.550;18.526;2024-02-21T10:38:49;4.82;;;2.40;;
66487;SDS011;53304;54.550;18.526;2024-02-21T10:41:18;4.55;;;2.42;;
66487;SDS011;53304;54.550;18.526;2024-02-21T10:43:49;5.10;;;2.30;;
66487;SDS011;53304;54.550;18.526;2024-02-21T10:46:19;5.90;;;2.25;;
66487;SDS011;53304;54.550;18.526;2024-02-21T10:48:48;5.22;;;2.38;;
66487;SDS011;53304;54.550;18.526;2024-02-21T10:51:21;4.65;;;2.30;;
66487;SDS011;53304;54.550;18.526;2024-02-21T10:56:49;4.80;;;2.35;;
66487;SDS011;53304;54.550;18.526;2024-02-21T10:59:15;4.38;;;2.10;;
66487;SDS011;53304;54.550;18.526;2024-02-21T11:01:44;4.43;;;2.47;;
66487;SDS011;53304;54.550;18.526;2024-02-21T11:04:15;4.05;;;2.13;;
66487;SDS011;53304;54.550;18.526;2024-02-21T11:06:46;4.63;;;2.35;;
66487;SDS011;53304;54.550;18.526;2024-02-21T11:09:12;3.63;;;2.08;;
66487;SDS011;53304;54.550;18.526;2024-02-21T11:11:38;5.57;;;2.10;;
66487;SDS011;53304;54.550;18.526;2024-02-21T11:16:39;4.90;;;2.30;;
66487;SDS011;53304;54.550;18.526;2024-02-21T11:19:06;4.10;;;2.20;;
66487;SDS011;53304;54.550;18.526;2024-02-21T11:21:49;5.00;;;2.25;;
66487;SDS011;53304;54.550;18.526;2024-02-21T11:24:30;4.75;;;2.33;;
66487;SDS011;53304;54.550;18.526;2024-02-21T11:27:09;4.63;;;2.00;;
66487;SDS011;53304;54.550;18.526;2024-02-21T11:29:43;4.57;;;2.10;;
66487;SDS011;53304;54.550;18.526;2024-02-21T11:32:10;3.80;;;2.17;;
66487;SDS011;53304;54.550;18.526;2024-02-21T11:34:38;3.65;;;1.95;;
66487;SDS011;53304;54.550;18.526;2024-02-21T11:37:12;4.68;;;2.30;;
66487;SDS011;53304;54.550;18.526;2024-02-21T11:39:39;3.88;;;1.98;;
66487;SDS011;53304;54.550;18.526;2024-02-21T11:42:08;3.72;;;2.00;;
66487;SDS011;53304;54.550;18.526;2024-02-21T11:44:37;4.72;;;2.35;;
66487;SDS011;53304;54.550;18.526;2024-02-21T11:47:07;5.00;;;2.47;;
66487;SDS011;53304;54.550;18.526;2024-02-21T11:49:42;3.50;;;1.90;;
66487;SDS011;53304;54.550;18.526;2024-02-21T11:52:11;3.92;;;1.90;;
66487;SDS011;53304;54.550;18.526;2024-02-21T11:54:41;3.03;;;1.90;;
66487;SDS011;53304;54.550;18.526;2024-02-21T11:57:09;4.45;;;2.40;;
66487;SDS011;53304;54.550;18.526;2024-02-21T11:59:39;3.30;;;1.63;;
66487;SDS011;53304;54.550;18.526;2024-02-21T12:02:07;4.82;;;2.03;;
66487;SDS011;53304;54.550;18.526;2024-02-21T12:04:35;4.57;;;2.17;;
66487;SDS011;53304;54.550;18.526;2024-02-21T12:07:04;3.22;;;1.92;;
66487;SDS011;53304;54.550;18.526;2024-02-21T12:09:29;3.75;;;1.90;;
66487;SDS011;53304;54.550;18.526;2024-02-21T12:12:02;3.58;;;2.03;;
66487;SDS011;53304;54.550;18.526;2024-02-21T12:14:31;4.90;;;2.00;;
66487;SDS011;53304;54.550;18.526;2024-02-21T12:16:58;5.28;;;2.00;;
66487;SDS011;53304;54.550;18.526;2024-02-21T12:19:29;3.88;;;1.70;;
66487;SDS011;53304;54.550;18.526;2024-02-21T12:21:55;5.07;;;2.00;;
66487;SDS011;53304;54.550;18.526;2024-02-21T12:24:28;5.22;;;1.90;;
66487;SDS011;53304;54.550;18.526;2024-02-21T12:26:57;3.72;;;1.90;;
66487;SDS011;53304;54.550;18.526;2024-02-21T12:29:23;4.18;;;2.00;;
66487;SDS011;53304;54.550;18.526;2024-02-21T12:31:55;3.38;;;1.98;;
66487;SDS011;53304;54.550;18.526;2024-02-21T12:34:23;3.25;;;1.70;;
66487;SDS011;53304;54.550;18.526;2024-02-21T12:36:52;3.95;;;2.20;;
66487;SDS011;53304;54.550;18.526;2024-02-21T12:39:17;5.68;;;2.00;;
66487;SDS011;53304;54.550;18.526;2024-02-21T12:41:42;3.97;;;1.75;;
66487;SDS011;53304;54.550;18.526;2024-02-21T12:44:12;3.88;;;1.85;;
66487;SDS011;53304;54.550;18.526;2024-02-21T12:46:43;4.38;;;2.00;;
66487;SDS011;53304;54.550;18.526;2024-02-21T12:49:10;4.55;;;1.88;;
66487;SDS011;53304;54.550;18.526;2024-02-21T12:51:35;3.90;;;2.00;;
66487;SDS011;53304;54.550;18.526;2024-02-21T12:54:04;4.60;;;1.95;;
66487;SDS011;53304;54.550;18.526;2024-02-21T12:56:29;4.75;;;2.10;;
66487;SDS011;53304;54.550;18.526;2024-02-21T12:59:00;4.28;;;1.90;;
66487;SDS011;53304;54.550;18.526;2024-02-21T13:01:25;3.38;;;2.00;;
66487;SDS011;53304;54.550;18.526;2024-02-21T13:03:51;4.80;;;2.00;;
66487;SDS011;53304;54.550;18.526;2024-02-21T13:06:17;3.83;;;2.10;;
66487;SDS011;53304;54.550;18.526;2024-02-21T13:08:44;4.47;;;2.10;;
66487;SDS011;53304;54.550;18.526;2024-02-21T13:11:12;3.67;;;2.05;;
66487;SDS011;53304;54.550;18.526;2024-02-21T13:13:42;3.38;;;1.88;;
66487;SDS011;53304;54.550;18.526;2024-02-21T13:16:08;6.15;;;2.10;;
66487;SDS011;53304;54.550;18.526;2024-02-21T13:18:35;4.38;;;1.75;;
66487;SDS011;53304;54.550;18.526;2024-02-21T13:21:03;3.42;;;1.80;;
66487;SDS011;53304;54.550;18.526;2024-02-21T13:23:29;5.85;;;2.00;;
66487;SDS011;53304;54.550;18.526;2024-02-21T13:25:55;2.97;;;1.92;;
66487;SDS011;53304;54.550;18.526;2024-02-21T13:28:20;3.33;;;1.75;;
66487;SDS011;53304;54.550;18.526;2024-02-21T13:30:48;4.18;;;1.90;;
66487;SDS011;53304;54.550;18.526;2024-02-21T13:33:15;3.08;;;1.75;;
66487;SDS011;53304;54.550;18.526;2024-02-21T13:35:41;3.53;;;2.00;;
66487;SDS011;53304;54.550;18.526;2024-02-21T13:38:06;3.83;;;1.90;;
66487;SDS011;53304;54.550;18.526;2024-02-21T13:40:35;3.88;;;2.20;;
66487;SDS011;53304;54.550;18.526;2024-02-21T13:43:00;3.38;;;2.00;;
66487;SDS011;53304;54.550;18.526;2024-02-21T13:45:26;3.70;;;1.80;;
66487;SDS011;53304;54.550;18.526;2024-02-21T13:47:51;2.40;;;1.50;;
66487;SDS011;53304;54.550;18.526;2024-02-21T13:50:19;4.30;;;1.90;;
66487;SDS011;53304;54.550;18.526;2024-02-21T13:52:48;3.22;;;1.85;;
66487;SDS011;53304;54.550;18.526;2024-02-21T13:55:19;2.80;;;1.98;;
66487;SDS011;53304;54.550;18.526;2024-02-21T13:57:51;3.97;;;1.90;;
66487;SDS011;53304;54.550;18.526;2024-02-21T14:00:19;2.80;;;1.70;;
66487;SDS011;53304;54.550;18.526;2024-02-21T14:02:45;3.67;;;1.92;;
66487;SDS011;53304;54.550;18.526;2024-02-21T14:05:16;5.13;;;2.10;;
66487;SDS011;53304;54.550;18.526;2024-02-21T14:07:44;4.05;;;1.85;;
66487;SDS011;53304;54.550;18.526;2024-02-21T14:10:12;4.10;;;2.05;;
66487;SDS011;53304;54.550;18.526;2024-02-21T14:12:37;3.92;;;1.85;;
66487;SDS011;53304;54.550;18.526;2024-02-21T14:15:08;3.97;;;2.00;;
66487;SDS011;53304;54.550;18.526;2024-02-21T14:17:34;3.63;;;1.85;;
66487;SDS011;53304;54.550;18.526;2024-02-21T14:19:59;4.03;;;1.83;;
66487;SDS011;53304;54.550;18.526;2024-02-21T14:22:25;3.63;;;2.15;;
66487;SDS011;53304;54.550;18.526;2024-02-21T14:24:50;2.95;;;1.75;;
66487;SDS011;53304;54.550;18.526;2024-02-21T14:27:18;3.38;;;2.05;;
66487;SDS011;53304;54.550;18.526;2024-02-21T14:29:43;5.00;;;2.13;;
66487;SDS011;53304;54.550;18.526;2024-02-21T14:32:09;4.07;;;1.90;;
66487;SDS011;53304;54.550;18.526;2024-02-21T14:34:39;3.85;;;2.10;;
66487;SDS011;53304;54.550;18.526;2024-02-21T14:37:05;6.18;;;2.10;;
66487;SDS011;53304;54.550;18.526;2024-02-21T14:39:30;3.03;;;1.85;;
66487;SDS011;53304;54.550;18.526;2024-02-21T14:41:57;3.53;;;1.80;;
66487;SDS011;53304;54.550;18.526;2024-02-21T14:44:24;4.18;;;1.77;;